Time;durP1;ratioP1;P1;durP2;ratioP2;P2;SDS_P1;SDS_P2;PMS_P1;PMS_P2;Temp;Humidity;BMP_temperature;BMP_pressure;BME280_temperature;BME280_humidity;BME280_pressure;Samples;Min_cycle;Max_cycle;Signal;HPM_P1;HPM_P2
2021/11/04 00:01:00;;;;;;;15.15;7.50;;;6.00;99.90;;;;;;2096257;28;20037;-80
2021/11/04 00:02:01;;;;;;;9.98;6.63;;;5.90;99.90;;;;;;2100920;28;20031;-82
2021/11/04 00:03:02;;;;;;;12.93;8.13;;;5.90;99.90;;;;;;2103998;28;20027;-82
2021/11/04 00:04:04;;;;;;;11.75;7.03;;;5.90;99.90;;;;;;2099148;28;20032;-81
2021/11/04 00:05:05;;;;;;;12.77;7.07;;;5.90;99.90;;;;;;2097606;28;20025;-81
2021/11/04 00:06:06;;;;;;;15.07;7.60;;;5.80;99.90;;;;;;2113526;28;20024;-81
2021/11/04 00:07:11;;;;;;;11.45;6.95;;;5.80;99.90;;;;;;2103169;28;20032;-81
2021/11/04 00:08:19;;;;;;;12.38;6.53;;;5.80;99.90;;;;;;2097280;28;20020;-81
2021/11/04 00:09:20;;;;;;;12.60;6.78;;;5.80;99.90;;;;;;2109233;28;20107;-81
2021/11/04 00:10:21;;;;;;;13.23;7.68;;;5.80;99.90;;;;;;2104601;28;20032;-81
2021/11/04 00:11:22;;;;;;;20.40;7.55;;;5.70;99.90;;;;;;2098221;28;20021;-81
2021/11/04 00:12:22;;;;;;;14.85;7.90;;;5.70;99.90;;;;;;2101622;28;20020;-81
2021/11/04 00:13:24;;;;;;;14.30;7.90;;;5.70;99.90;;;;;;2098886;28;20558;-80
2021/11/04 00:14:25;;;;;;;12.98;7.82;;;5.60;99.90;;;;;;2099286;28;20021;-81
2021/11/04 00:15:26;;;;;;;16.30;7.80;;;5.60;99.90;;;;;;2107310;28;20118;-80
2021/11/04 00:16:26;;;;;;;13.13;7.35;;;5.50;99.90;;;;;;2090897;28;20079;-81
2021/11/04 00:17:27;;;;;;;12.65;7.40;;;5.50;99.90;;;;;;2092756;28;20017;-81
2021/11/04 00:18:28;;;;;;;13.82;8.20;;;5.40;99.90;;;;;;2107093;28;20099;-82
2021/11/04 00:19:29;;;;;;;9.48;7.30;;;5.40;99.90;;;;;;2096867;28;20024;-82
2021/11/04 00:20:30;;;;;;;13.52;7.88;;;5.40;99.90;;;;;;2099843;28;20115;-81
2021/11/04 00:21:31;;;;;;;13.98;8.07;;;5.30;99.90;;;;;;2107976;28;20024;-80
2021/11/04 00:22:32;;;;;;;14.25;7.07;;;5.30;99.90;;;;;;2107794;28;20023;-84
2021/11/04 00:23:33;;;;;;;14.10;7.53;;;5.30;99.90;;;;;;2099470;28;20047;-80
2021/11/04 00:24:34;;;;;;;12.82;6.60;;;5.30;99.90;;;;;;2107569;28;20522;-81
2021/11/04 00:25:35;;;;;;;13.18;7.20;;;5.30;99.90;;;;;;2106192;28;20028;-80
2021/11/04 00:26:35;;;;;;;13.20;8.23;;;5.30;99.90;;;;;;2099709;28;20029;-81
2021/11/04 00:27:37;;;;;;;15.70;8.25;;;5.30;99.90;;;;;;2100199;28;20111;-81
2021/11/04 00:28:37;;;;;;;13.00;7.72;;;5.30;99.90;;;;;;2106431;28;20031;-80
2021/11/04 00:29:38;;;;;;;13.20;7.55;;;5.30;99.90;;;;;;2098516;28;20119;-82
2021/11/04 00:30:39;;;;;;;15.93;7.38;;;5.40;99.90;;;;;;2101138;28;20028;-82
2021/11/04 00:31:39;;;;;;;15.73;7.60;;;5.40;99.90;;;;;;2101094;28;20020;-81
2021/11/04 00:32:45;;;;;;;12.40;7.45;;;5.40;99.90;;;;;;2100105;28;20032;-82
2021/11/04 00:33:46;;;;;;;13.10;7.70;;;5.40;99.90;;;;;;2101515;28;20032;-82
2021/11/04 00:34:47;;;;;;;10.50;7.80;;;5.40;99.90;;;;;;2107338;28;20032;-81
2021/11/04 00:35:47;;;;;;;12.45;8.15;;;5.40;99.90;;;;;;2109562;28;20411;-81
2021/11/04 00:36:48;;;;;;;13.23;7.78;;;5.40;99.90;;;;;;2103826;28;20115;-82
2021/11/04 00:37:49;;;;;;;13.95;8.13;;;5.40;99.90;;;;;;2099825;28;20031;-82
2021/11/04 00:38:50;;;;;;;14.63;8.32;;;5.40;99.90;;;;;;2103271;28;20028;-81
2021/11/04 00:39:51;;;;;;;10.55;7.30;;;5.50;99.90;;;;;;2098383;28;20609;-81
2021/11/04 00:40:51;;;;;;;15.40;8.13;;;5.50;99.90;;;;;;2099742;28;20178;-80
2021/11/04 00:41:52;;;;;;;13.30;8.07;;;5.50;99.90;;;;;;2098319;28;20021;-80
2021/11/04 00:42:53;;;;;;;21.25;9.13;;;5.60;99.90;;;;;;2097874;28;20025;-81
2021/11/04 00:43:56;;;;;;;18.73;8.80;;;5.70;99.90;;;;;;2091301;28;20014;-80
2021/11/04 00:44:57;;;;;;;16.40;9.13;;;5.70;99.90;;;;;;2096994;28;20036;-81
2021/11/04 00:45:58;;;;;;;14.15;8.88;;;5.80;99.90;;;;;;2091060;28;20027;-82
2021/11/04 00:46:59;;;;;;;13.90;7.97;;;5.80;99.90;;;;;;2099314;28;20565;-81
2021/11/04 00:48:00;;;;;;;14.35;8.25;;;5.90;99.90;;;;;;2099627;28;20020;-81
2021/11/04 00:49:01;;;;;;;13.32;8.00;;;6.10;99.90;;;;;;2104557;28;20047;-80
2021/11/04 00:50:02;;;;;;;12.30;8.18;;;6.20;99.90;;;;;;2106648;28;20024;-81
2021/11/04 00:51:04;;;;;;;12.50;8.40;;;6.20;99.90;;;;;;2107511;28;20028;-82
2021/11/04 00:52:05;;;;;;;15.18;8.13;;;6.30;99.90;;;;;;2096783;28;20031;-81
2021/11/04 00:53:06;;;;;;;12.63;7.88;;;6.30;99.90;;;;;;2096775;28;20017;-81
2021/11/04 00:54:06;;;;;;;11.70;7.30;;;6.40;99.90;;;;;;2097288;28;20017;-81
2021/11/04 00:55:09;;;;;;;11.57;7.30;;;6.50;99.90;;;;;;2099726;28;20111;-82
2021/11/04 00:56:10;;;;;;;12.55;7.40;;;6.50;99.90;;;;;;2099170;28;20063;-81
2021/11/04 00:57:10;;;;;;;11.90;6.50;;;6.60;99.90;;;;;;2092340;28;20528;-83
2021/11/04 00:58:11;;;;;;;9.82;6.50;;;6.60;99.90;;;;;;2094333;28;20021;-81
2021/11/04 00:59:12;;;;;;;11.15;6.68;;;6.70;99.90;;;;;;2107953;28;20058;-82
2021/11/04 01:00:14;;;;;;;10.98;6.35;;;6.70;99.90;;;;;;2102589;28;20021;-81
2021/11/04 01:01:18;;;;;;;12.45;6.50;;;6.70;99.90;;;;;;2091304;28;20049;-82
2021/11/04 01:02:18;;;;;;;11.90;6.07;;;6.70;99.90;;;;;;2094566;28;20090;-80
2021/11/04 01:03:19;;;;;;;8.40;5.78;;;6.80;99.90;;;;;;2104355;28;20654;-82
2021/11/04 01:04:20;;;;;;;8.40;6.32;;;6.80;99.90;;;;;;2096917;28;20043;-80
2021/11/04 01:05:21;;;;;;;9.80;6.10;;;6.80;99.90;;;;;;2099505;28;20029;-81
2021/11/04 01:06:22;;;;;;;10.18;6.00;;;6.80;99.90;;;;;;2106933;28;20134;-81
2021/11/04 01:07:23;;;;;;;15.55;6.13;;;6.80;99.90;;;;;;2105648;28;20034;-81
2021/11/04 01:08:23;;;;;;;8.43;5.60;;;6.90;99.90;;;;;;2107648;28;20016;-81
2021/11/04 01:09:24;;;;;;;8.10;5.05;;;6.90;99.90;;;;;;2093791;28;20063;-81
2021/11/04 01:10:25;;;;;;;10.45;5.25;;;6.90;99.90;;;;;;2095058;28;20111;-81
2021/11/04 01:11:26;;;;;;;9.73;5.07;;;7.00;99.90;;;;;;2107779;28;20058;-81
2021/11/04 01:12:27;;;;;;;7.45;4.90;;;7.00;99.90;;;;;;2099277;28;20033;-81
2021/11/04 01:13:27;;;;;;;6.55;4.80;;;7.00;99.90;;;;;;2091281;28;20017;-81
2021/11/04 01:14:28;;;;;;;7.10;5.05;;;7.00;99.90;;;;;;2098447;28;20028;-81
2021/11/04 01:15:29;;;;;;;10.70;5.13;;;7.00;99.90;;;;;;2104014;28;20578;-81
2021/11/04 01:16:30;;;;;;;8.55;5.40;;;7.00;99.90;;;;;;2099641;28;20035;-81
2021/11/04 01:17:32;;;;;;;6.25;4.45;;;7.10;99.90;;;;;;2100474;28;20115;-81
2021/11/04 01:18:33;;;;;;;7.93;4.50;;;7.00;99.90;;;;;;2107577;28;20024;-81
2021/11/04 01:19:34;;;;;;;8.25;4.60;;;7.00;99.90;;;;;;2105397;28;20024;-82
2021/11/04 01:20:34;;;;;;;9.13;4.28;;;7.10;99.90;;;;;;2108375;28;20115;-81
2021/11/04 01:21:35;;;;;;;10.63;4.47;;;7.00;99.90;;;;;;2101320;28;20029;-81
2021/11/04 01:22:36;;;;;;;8.52;4.25;;;7.10;99.90;;;;;;2105464;28;20884;-81
2021/11/04 01:23:38;;;;;;;6.57;4.32;;;7.00;99.90;;;;;;2099901;28;20027;-81
2021/11/04 01:24:39;;;;;;;6.18;3.85;;;7.00;99.90;;;;;;2099258;28;20024;-81
2021/11/04 01:25:39;;;;;;;7.63;4.70;;;7.00;99.90;;;;;;2100578;28;20028;-81
2021/11/04 01:26:40;;;;;;;6.95;3.97;;;7.00;99.90;;;;;;2104377;28;20023;-81
2021/11/04 01:27:41;;;;;;;6.35;4.07;;;7.00;99.90;;;;;;2108558;28;20478;-81
2021/11/04 01:28:41;;;;;;;5.47;3.67;;;7.00;99.90;;;;;;2099634;28;20099;-81
2021/11/04 01:29:42;;;;;;;4.82;3.70;;;6.90;99.90;;;;;;2101602;28;20058;-84
2021/11/04 01:30:43;;;;;;;6.03;3.42;;;6.90;99.90;;;;;;2102134;28;20027;-81
2021/11/04 01:31:44;;;;;;;7.22;3.78;;;6.90;99.90;;;;;;2098739;28;20029;-81
2021/11/04 01:32:45;;;;;;;5.15;3.30;;;6.90;99.90;;;;;;2092096;28;20079;-82
2021/11/04 01:33:45;;;;;;;5.72;3.50;;;6.90;99.90;;;;;;2097188;28;20098;-82
2021/11/04 01:34:46;;;;;;;4.60;3.10;;;6.90;99.90;;;;;;2092010;28;20032;-81
2021/11/04 01:35:47;;;;;;;5.07;3.15;;;6.90;99.90;;;;;;2098880;28;20040;-81
2021/11/04 01:36:47;;;;;;;4.43;2.70;;;6.80;99.90;;;;;;2094407;28;20420;-81
2021/11/04 01:37:48;;;;;;;5.50;3.08;;;6.80;99.90;;;;;;2100632;28;20051;-81
2021/11/04 01:38:49;;;;;;;5.55;2.55;;;6.80;99.90;;;;;;2100276;28;20020;-82
2021/11/04 01:39:49;;;;;;;6.95;3.00;;;6.80;99.90;;;;;;2100405;28;20029;-81
2021/11/04 01:40:50;;;;;;;5.25;2.85;;;6.80;99.90;;;;;;2099894;28;20032;-81
2021/11/04 01:41:53;;;;;;;4.85;3.10;;;6.70;99.90;;;;;;2091752;28;20028;-81
2021/11/04 01:42:54;;;;;;;4.50;2.97;;;6.70;99.90;;;;;;2092790;28;20028;-81
2021/11/04 01:43:56;;;;;;;6.05;3.10;;;6.70;99.90;;;;;;2092755;28;20021;-81
2021/11/04 01:44:57;;;;;;;6.22;2.83;;;6.60;99.90;;;;;;2106728;28;20012;-81
2021/11/04 01:45:57;;;;;;;6.53;3.15;;;6.60;99.90;;;;;;2109767;28;20047;-82
2021/11/04 01:46:59;;;;;;;8.73;2.88;;;6.60;99.90;;;;;;2103286;28;20020;-81
2021/11/04 01:48:03;;;;;;;5.40;2.70;;;6.60;99.90;;;;;;2103081;28;20032;-81
2021/11/04 01:49:04;;;;;;;5.28;3.10;;;6.60;99.90;;;;;;2102384;28;20225;-81
2021/11/04 01:50:05;;;;;;;3.78;2.67;;;6.60;99.90;;;;;;2096011;28;20028;-81
2021/11/04 01:51:06;;;;;;;9.17;3.00;;;6.50;99.90;;;;;;2100301;28;20032;-81
2021/11/04 01:52:11;;;;;;;6.05;3.00;;;6.50;99.90;;;;;;2104510;28;20290;-81
2021/11/04 01:53:11;;;;;;;5.13;2.80;;;6.50;99.90;;;;;;2108506;28;20023;-82
2021/11/04 01:54:13;;;;;;;5.63;2.55;;;6.40;99.90;;;;;;2108514;28;20058;-82
2021/11/04 01:55:22;;;;;;;5.40;3.05;;;6.40;99.90;;;;;;2102024;28;20020;-82
2021/11/04 01:56:24;;;;;;;6.18;2.95;;;6.40;99.90;;;;;;2099835;28;20097;-82
2021/11/04 01:57:25;;;;;;;4.72;2.53;;;6.30;99.90;;;;;;2091882;28;20017;-82
2021/11/04 01:58:26;;;;;;;6.68;2.83;;;6.40;99.90;;;;;;2097710;28;20054;-82
2021/11/04 01:59:27;;;;;;;3.00;2.30;;;6.40;99.90;;;;;;2097112;28;20609;-81
2021/11/04 02:00:30;;;;;;;4.07;2.33;;;6.30;99.90;;;;;;2098402;28;20507;-81
2021/11/04 02:01:31;;;;;;;5.07;2.40;;;6.30;99.90;;;;;;2099339;28;20471;-81
2021/11/04 02:02:40;;;;;;;6.32;3.03;;;6.30;99.90;;;;;;2100504;28;20028;-82
2021/11/04 02:04:08;;;;;;;7.55;2.72;;;6.30;99.90;;;;;;2102311;28;20012;-82
2021/11/04 02:05:10;;;;;;;7.60;2.55;;;6.30;99.90;;;;;;2104440;28;20020;-83
2021/11/04 02:06:33;;;;;;;8.30;3.20;;;6.30;99.90;;;;;;2112983;28;20016;-81
2021/11/04 02:07:43;;;;;;;7.22;2.80;;;6.20;99.90;;;;;;2108515;28;20035;-81
2021/11/04 02:08:54;;;;;;;7.85;2.92;;;6.20;99.90;;;;;;2104428;28;20008;-81
2021/11/04 02:10:09;;;;;;;4.63;2.58;;;6.20;99.90;;;;;;2093386;28;20032;-82
2021/11/04 02:11:20;;;;;;;6.78;2.88;;;6.20;99.90;;;;;;2094107;28;20123;-81
2021/11/04 02:12:28;;;;;;;4.30;3.10;;;6.20;99.90;;;;;;2101380;28;20035;-81
2021/11/04 02:13:35;;;;;;;7.90;2.85;;;6.20;99.90;;;;;;2107183;28;20064;-82
2021/11/04 02:14:45;;;;;;;5.53;2.88;;;6.10;99.90;;;;;;2114787;28;20031;-82
2021/11/04 02:15:50;;;;;;;7.47;3.20;;;6.00;99.90;;;;;;2110199;28;20076;-81
2021/11/04 02:16:52;;;;;;;6.95;3.00;;;6.00;99.90;;;;;;2102614;28;20029;-82
2021/11/04 02:17:55;;;;;;;;;;;6.00;99.90;;;;;;2110490;28;20020;-81
2021/11/04 02:19:00;;;;;;;7.57;3.03;;;6.00;99.90;;;;;;2106650;28;19904;-81
2021/11/04 02:20:03;;;;;;;7.22;3.08;;;6.00;99.90;;;;;;2104176;28;20032;-82
2021/11/04 02:21:12;;;;;;;9.02;3.58;;;6.00;99.90;;;;;;2101274;28;20411;-82
2021/11/04 02:22:47;;;;;;;5.60;3.42;;;6.00;99.90;;;;;;2104841;28;20099;-81
2021/11/04 02:24:09;;;;;;;7.10;3.40;;;5.90;99.90;;;;;;2106390;28;20059;-82
2021/11/04 02:25:24;;;;;;;7.38;3.40;;;5.90;99.90;;;;;;2101206;28;20051;-82
2021/11/04 02:26:25;;;;;;;6.65;3.53;;;5.80;99.90;;;;;;2110791;28;20026;-82
2021/11/04 02:27:26;;;;;;;7.38;3.20;;;5.80;99.90;;;;;;2105924;28;20561;-82
2021/11/04 02:28:28;;;;;;;9.77;3.22;;;5.70;99.90;;;;;;2102454;28;20024;-82
2021/11/04 02:29:32;;;;;;;7.25;3.40;;;5.70;99.90;;;;;;2100177;28;20021;-82
2021/11/04 02:30:34;;;;;;;6.63;3.38;;;5.60;99.90;;;;;;2102962;28;20029;-82
2021/11/04 02:31:35;;;;;;;9.45;3.42;;;5.50;99.90;;;;;;2103271;28;20055;-81
2021/11/04 02:32:37;;;;;;;8.25;3.40;;;5.50;99.90;;;;;;2096185;28;20017;-82
2021/11/04 02:33:39;;;;;;;5.57;3.00;;;5.40;99.90;;;;;;2096658;28;20032;-82
2021/11/04 02:34:41;;;;;;;4.15;3.17;;;5.40;99.90;;;;;;2096143;28;20031;-82
2021/11/04 02:35:49;;;;;;;6.63;3.28;;;5.30;99.90;;;;;;2096690;28;20115;-83
2021/11/04 02:36:50;;;;;;;6.75;3.40;;;5.30;99.90;;;;;;2093038;28;20037;-82
2021/11/04 02:37:52;;;;;;;7.22;3.00;;;5.30;99.90;;;;;;2096794;28;20025;-83
2021/11/04 02:38:53;;;;;;;;;;;5.20;99.90;;;;;;2093876;28;20120;-82
2021/11/04 02:39:54;;;;;;;8.43;3.35;;;5.20;99.90;;;;;;2095164;28;19990;-81
2021/11/04 02:40:55;;;;;;;4.82;3.13;;;5.10;99.90;;;;;;2095314;28;20017;-82
2021/11/04 02:41:57;;;;;;;9.52;3.63;;;5.10;99.90;;;;;;2087561;28;20021;-82
2021/11/04 02:42:57;;;;;;;16.23;3.42;;;5.00;99.90;;;;;;2087512;28;20025;-82
2021/11/04 02:44:00;;;;;;;10.73;3.60;;;5.00;99.90;;;;;;2095541;28;20340;-81
2021/11/04 02:45:02;;;;;;;8.43;3.53;;;4.90;99.90;;;;;;2102178;28;20142;-81
2021/11/04 02:46:03;;;;;;;7.30;3.55;;;4.80;99.90;;;;;;2103498;28;20021;-81
2021/11/04 02:47:04;;;;;;;5.40;3.03;;;4.90;99.90;;;;;;2102346;28;20020;-82
2021/11/04 02:48:05;;;;;;;5.78;3.20;;;4.80;99.90;;;;;;2091389;28;20097;-82
2021/11/04 02:49:06;;;;;;;6.13;3.38;;;4.80;99.90;;;;;;2087304;28;20013;-82
2021/11/04 02:50:09;;;;;;;7.88;3.30;;;4.80;99.90;;;;;;2089102;28;20026;-82
2021/11/04 02:51:09;;;;;;;5.20;2.97;;;4.80;99.90;;;;;;2098102;28;20032;-82
2021/11/04 02:52:11;;;;;;;7.45;3.22;;;4.70;99.90;;;;;;2105191;28;20016;-82
2021/11/04 02:53:15;;;;;;;6.28;2.90;;;4.70;99.90;;;;;;2103772;28;20024;-82
2021/11/04 02:54:16;;;;;;;7.10;3.75;;;4.60;99.90;;;;;;2104572;28;20029;-82
2021/11/04 02:55:17;;;;;;;7.57;3.50;;;4.70;99.90;;;;;;2096199;28;20033;-83
2021/11/04 02:56:18;;;;;;;7.40;3.17;;;4.70;99.90;;;;;;2089410;28;20112;-83
2021/11/04 02:57:19;;;;;;;8.32;3.22;;;4.70;99.90;;;;;;2105051;28;20025;-82
2021/11/04 02:58:20;;;;;;;5.85;3.33;;;4.70;99.90;;;;;;2103864;28;20082;-82
2021/11/04 02:59:24;;;;;;;5.72;3.33;;;4.60;99.90;;;;;;2095076;28;20021;-82
2021/11/04 03:00:24;;;;;;;7.03;3.45;;;4.60;99.90;;;;;;2095807;28;20028;-82
2021/11/04 03:01:25;;;;;;;11.65;3.83;;;4.60;99.90;;;;;;2103581;28;20037;-82
2021/11/04 03:02:26;;;;;;;6.78;3.35;;;4.60;99.90;;;;;;2103768;28;20017;-83
2021/11/04 03:03:27;;;;;;;8.18;3.55;;;4.50;99.90;;;;;;2100018;28;20021;-82
2021/11/04 03:04:27;;;;;;;7.88;3.53;;;4.50;99.90;;;;;;2102692;28;20048;-83
2021/11/04 03:05:28;;;;;;;5.22;3.20;;;4.40;99.90;;;;;;2096194;28;20021;-83
2021/11/04 03:06:29;;;;;;;7.15;3.40;;;4.40;99.90;;;;;;2096216;28;20048;-82
2021/11/04 03:07:29;;;;;;;7.75;3.13;;;4.40;99.90;;;;;;2095803;28;20045;-84
2021/11/04 03:08:30;;;;;;;4.80;3.40;;;4.30;99.90;;;;;;2095707;28;20017;-83
2021/11/04 03:09:31;;;;;;;7.85;3.35;;;4.30;99.90;;;;;;2095842;28;20108;-84
2021/11/04 03:10:33;;;;;;;4.63;3.15;;;4.30;99.90;;;;;;2095729;28;20080;-84
2021/11/04 03:11:34;;;;;;;6.82;3.38;;;4.30;99.90;;;;;;2101620;28;20028;-84
2021/11/04 03:12:34;;;;;;;6.55;3.55;;;4.30;99.90;;;;;;2104880;28;20039;-83
2021/11/04 03:13:35;;;;;;;4.05;2.92;;;4.30;99.90;;;;;;2103920;28;20025;-83
2021/11/04 03:14:36;;;;;;;6.60;3.50;;;4.30;99.90;;;;;;2103467;28;20104;-82
2021/11/04 03:15:46;;;;;;;6.55;3.10;;;4.30;99.90;;;;;;2104328;28;20104;-83
2021/11/04 03:16:52;;;;;;;5.10;2.83;;;4.30;99.90;;;;;;2096366;28;20063;-83
2021/11/04 03:17:53;;;;;;;6.95;3.30;;;4.20;99.90;;;;;;2104892;28;20021;-83
2021/11/04 03:18:56;;;;;;;5.30;3.22;;;4.20;99.90;;;;;;2105188;28;20017;-84
2021/11/04 03:19:57;;;;;;;5.25;3.00;;;4.20;99.90;;;;;;2104943;28;20049;-83
2021/11/04 03:20:58;;;;;;;6.70;3.22;;;4.20;99.90;;;;;;2095621;28;20039;-83
2021/11/04 03:22:01;;;;;;;15.40;4.63;;;4.20;99.90;;;;;;2090418;28;20516;-82
2021/11/04 03:23:02;;;;;;;;;;;4.20;99.90;;;;;;2096626;28;20092;-83
2021/11/04 03:24:05;;;;;;;8.63;3.50;;;4.20;99.90;;;;;;2091190;28;19972;-82
2021/11/04 03:25:07;;;;;;;8.48;3.28;;;4.20;99.90;;;;;;2102769;28;20013;-84
2021/11/04 03:26:10;;;;;;;;;;;4.20;99.90;;;;;;2100279;28;20500;-83
2021/11/04 03:27:11;;;;;;;4.38;2.58;;;4.20;99.90;;;;;;2103340;28;19904;-84
2021/11/04 03:28:13;;;;;;;5.13;2.97;;;4.20;99.90;;;;;;2104122;28;20031;-82
2021/11/04 03:29:15;;;;;;;4.28;2.80;;;4.10;99.90;;;;;;2103862;28;20025;-84
2021/11/04 03:30:19;;;;;;;10.07;3.10;;;4.10;99.90;;;;;;2103442;28;20024;-83
2021/11/04 03:31:21;;;;;;;6.57;2.95;;;4.00;99.90;;;;;;2103330;28;20032;-82
2021/11/04 03:32:23;;;;;;;5.35;3.10;;;4.00;99.90;;;;;;2103451;28;20035;-82
2021/11/04 03:33:26;;;;;;;8.15;2.90;;;4.00;99.90;;;;;;2093846;28;20037;-83
2021/11/04 03:34:27;;;;;;;7.43;3.20;;;3.90;99.90;;;;;;2104122;28;20053;-83
2021/11/04 03:35:31;;;;;;;4.78;3.47;;;3.90;99.90;;;;;;2094402;28;20021;-82
2021/11/04 03:36:34;;;;;;;6.47;3.10;;;3.90;99.90;;;;;;2087709;28;20034;-82
2021/11/04 03:37:37;;;;;;;6.50;3.58;;;3.90;99.90;;;;;;2095874;28;20025;-84
2021/11/04 03:38:38;;;;;;;5.35;2.90;;;3.90;99.90;;;;;;2096698;28;20032;-83
2021/11/04 03:39:41;;;;;;;11.43;3.28;;;3.80;99.90;;;;;;2096298;28;20027;-83
2021/11/04 03:40:42;;;;;;;6.40;3.05;;;3.80;99.90;;;;;;2100315;28;20905;-84
2021/11/04 03:41:44;;;;;;;6.95;2.90;;;3.70;99.90;;;;;;2096594;28;20056;-84
2021/11/04 03:42:47;;;;;;;4.55;2.78;;;3.70;99.90;;;;;;2096416;28;20029;-85
2021/11/04 03:43:49;;;;;;;6.65;3.65;;;3.70;99.90;;;;;;2095372;28;20024;-83
2021/11/04 03:44:50;;;;;;;5.00;3.10;;;3.60;99.90;;;;;;2096925;28;20052;-83
2021/11/04 03:45:51;;;;;;;5.57;2.80;;;3.60;99.90;;;;;;2105237;28;20025;-83
2021/11/04 03:46:53;;;;;;;8.50;3.20;;;3.60;99.90;;;;;;2097996;28;20064;-84
2021/11/04 03:47:55;;;;;;;5.25;2.85;;;3.50;99.90;;;;;;2100246;28;20377;-83
2021/11/04 03:48:56;;;;;;;6.50;2.70;;;3.50;99.90;;;;;;2107406;28;20082;-83
2021/11/04 03:49:57;;;;;;;4.93;2.78;;;3.50;99.90;;;;;;2106457;28;20089;-84
2021/11/04 03:50:59;;;;;;;6.40;3.22;;;3.50;99.90;;;;;;2098527;28;20520;-83
2021/11/04 03:52:00;;;;;;;5.78;2.90;;;3.50;99.90;;;;;;2097637;28;20579;-83
2021/11/04 03:53:01;;;;;;;6.55;2.75;;;3.50;99.90;;;;;;2105586;28;20419;-83
2021/11/04 03:54:02;;;;;;;5.88;3.30;;;3.50;99.90;;;;;;2105831;28;20049;-83
2021/11/04 03:55:03;;;;;;;4.57;3.03;;;3.60;99.90;;;;;;2097112;28;20029;-83
2021/11/04 03:56:05;;;;;;;9.82;3.33;;;3.60;99.90;;;;;;2106178;28;20029;-83
2021/11/04 03:57:06;;;;;;;5.80;3.25;;;3.70;99.90;;;;;;2105762;28;20480;-84
2021/11/04 03:58:08;;;;;;;8.20;3.20;;;3.80;99.90;;;;;;2097164;28;20075;-83
2021/11/04 03:59:09;;;;;;;3.97;2.60;;;3.80;99.90;;;;;;2096962;28;20128;-83
2021/11/04 04:00:12;;;;;;;4.65;2.78;;;3.80;99.90;;;;;;2104559;28;20025;-83
2021/11/04 04:01:13;;;;;;;4.80;3.45;;;3.90;99.90;;;;;;2099324;28;20063;-83
2021/11/04 04:02:14;;;;;;;5.35;2.88;;;3.90;99.90;;;;;;2097431;28;20025;-84
2021/11/04 04:03:15;;;;;;;7.13;3.03;;;3.90;99.90;;;;;;2096822;28;20111;-83
2021/11/04 04:04:16;;;;;;;8.48;3.72;;;3.90;99.90;;;;;;2096729;28;20523;-83
2021/11/04 04:05:27;;;;;;;4.43;3.50;;;3.90;99.90;;;;;;2105722;28;20508;-83
2021/11/04 04:06:27;;;;;;;4.30;3.42;;;3.90;99.90;;;;;;2096997;28;20033;-83
2021/11/04 04:07:29;;;;;;;9.30;3.85;;;4.00;99.90;;;;;;2096126;28;20017;-84
2021/11/04 04:08:32;;;;;;;5.38;3.55;;;4.00;99.90;;;;;;2097460;28;20092;-83
2021/11/04 04:09:32;;;;;;;9.23;3.38;;;4.10;99.90;;;;;;2097313;28;20032;-83
2021/11/04 04:10:33;;;;;;;5.93;3.13;;;4.00;99.90;;;;;;2086738;28;20025;-83
2021/11/04 04:11:34;;;;;;;8.38;3.65;;;4.00;99.90;;;;;;2088660;28;20029;-83
2021/11/04 04:12:35;;;;;;;10.25;3.83;;;4.10;99.90;;;;;;2088881;28;20036;-83
2021/11/04 04:13:35;;;;;;;11.70;4.40;;;4.10;99.90;;;;;;2085820;28;20053;-83
2021/11/04 04:14:36;;;;;;;7.60;4.10;;;4.20;99.90;;;;;;2088784;28;20024;-83
2021/11/04 04:15:37;;;;;;;8.90;4.57;;;4.20;99.90;;;;;;2094007;28;20024;-83
2021/11/04 04:16:37;;;;;;;8.85;3.78;;;4.30;99.90;;;;;;2104538;28;20031;-84
2021/11/04 04:17:38;;;;;;;7.30;4.18;;;4.30;99.90;;;;;;2097637;28;20056;-82
2021/11/04 04:18:39;;;;;;;7.63;4.00;;;4.40;99.90;;;;;;2097385;28;20029;-83
2021/11/04 04:19:40;;;;;;;6.28;4.07;;;4.40;99.90;;;;;;2097862;28;20036;-83
2021/11/04 04:20:41;;;;;;;7.93;3.90;;;4.40;99.90;;;;;;2088655;28;20076;-82
2021/11/04 04:21:42;;;;;;;8.40;4.63;;;4.40;99.90;;;;;;2089023;28;20026;-83
2021/11/04 04:22:43;;;;;;;16.83;5.97;;;4.50;99.90;;;;;;2088465;28;20106;-82
2021/11/04 04:23:43;;;;;;;10.98;4.50;;;4.50;99.90;;;;;;2088552;28;20041;-83
2021/11/04 04:24:45;;;;;;;13.25;5.20;;;4.50;99.90;;;;;;2088666;28;20026;-82
2021/11/04 04:25:46;;;;;;;10.13;5.07;;;4.50;99.90;;;;;;2087406;28;20025;-82
2021/11/04 04:26:47;;;;;;;9.63;5.30;;;4.50;99.90;;;;;;2085106;28;20025;-82
2021/11/04 04:27:47;;;;;;;14.10;5.20;;;4.60;99.90;;;;;;2096349;28;20021;-84
2021/11/04 04:28:48;;;;;;;9.10;4.68;;;4.70;99.90;;;;;;2097354;28;20017;-83
2021/11/04 04:29:49;;;;;;;11.80;5.30;;;4.70;99.90;;;;;;2096766;28;20036;-84
2021/11/04 04:30:49;;;;;;;12.45;5.72;;;4.80;99.90;;;;;;2088833;28;20041;-84
2021/11/04 04:31:50;;;;;;;9.82;4.93;;;4.80;99.90;;;;;;2088782;28;20041;-83
2021/11/04 04:32:51;;;;;;;9.68;5.15;;;4.80;99.90;;;;;;2089050;28;20051;-83
2021/11/04 04:33:52;;;;;;;8.07;4.93;;;4.90;99.90;;;;;;2094739;28;20071;-83
2021/11/04 04:34:52;;;;;;;17.75;5.53;;;4.90;99.90;;;;;;2088992;28;20093;-86
2021/11/04 04:35:55;;;;;;;10.32;5.68;;;5.00;99.90;;;;;;2097870;28;20024;-87
2021/11/04 04:36:56;;;;;;;7.63;4.80;;;5.00;99.90;;;;;;2089104;28;20056;-84
2021/11/04 04:37:56;;;;;;;11.90;5.28;;;5.00;99.90;;;;;;2080400;28;20030;-85
2021/11/04 04:38:57;;;;;;;8.10;4.93;;;5.10;99.90;;;;;;2086845;28;20100;-83
2021/11/04 04:39:58;;;;;;;9.85;4.88;;;5.10;99.90;;;;;;2089410;28;20064;-82
2021/11/04 04:40:58;;;;;;;11.02;5.00;;;5.10;99.90;;;;;;2098576;28;20017;-83
2021/11/04 04:42:00;;;;;;;13.82;4.70;;;5.10;99.90;;;;;;2097563;28;20804;-83
2021/11/04 04:43:01;;;;;;;10.55;5.18;;;5.10;99.90;;;;;;2096801;28;20028;-84
2021/11/04 04:44:02;;;;;;;10.20;5.32;;;5.10;99.90;;;;;;2098491;28;20049;-83
2021/11/04 04:45:07;;;;;;;7.05;4.60;;;5.10;99.90;;;;;;2096761;28;20133;-82
2021/11/04 04:46:07;;;;;;;8.32;5.00;;;5.00;99.90;;;;;;2088335;28;20106;-82
2021/11/04 04:47:08;;;;;;;11.70;6.47;;;5.00;99.90;;;;;;2097192;28;20029;-81
2021/11/04 04:48:10;;;;;;;14.05;8.77;;;4.90;99.90;;;;;;2096226;28;20057;-82
2021/11/04 04:49:11;;;;;;;9.90;5.05;;;4.90;99.90;;;;;;2097715;28;20021;-83
2021/11/04 04:50:12;;;;;;;8.88;4.20;;;5.00;99.90;;;;;;2089597;28;20040;-82
2021/11/04 04:51:13;;;;;;;9.38;3.97;;;5.00;99.90;;;;;;2089449;28;20056;-83
2021/11/04 04:52:14;;;;;;;10.65;4.38;;;5.00;99.90;;;;;;2089868;28;20041;-83
2021/11/04 04:53:15;;;;;;;18.58;4.47;;;5.00;99.90;;;;;;2085850;28;20049;-83
2021/11/04 04:54:16;;;;;;;9.43;4.20;;;5.00;99.90;;;;;;2082996;28;20026;-84
2021/11/04 04:55:17;;;;;;;12.13;4.80;;;5.10;99.90;;;;;;2098549;28;20024;-84
2021/11/04 04:56:17;;;;;;;7.28;4.25;;;5.10;99.90;;;;;;2099288;28;20037;-84
2021/11/04 04:57:22;;;;;;;13.00;4.88;;;5.10;99.90;;;;;;2099019;28;20020;-84
2021/11/04 04:58:23;;;;;;;7.90;5.43;;;5.00;99.90;;;;;;2099492;28;20014;-84
2021/11/04 04:59:24;;;;;;;8.95;4.82;;;5.00;99.90;;;;;;2099122;28;20056;-83
2021/11/04 05:00:24;;;;;;;11.25;4.80;;;5.00;99.90;;;;;;2090329;28;20022;-83
2021/11/04 05:01:25;;;;;;;7.35;4.95;;;4.90;99.90;;;;;;2093182;28;20052;-83
2021/11/04 05:02:27;;;;;;;6.97;4.65;;;5.00;99.90;;;;;;2096229;28;20040;-82
2021/11/04 05:03:28;;;;;;;8.43;4.32;;;4.90;99.90;;;;;;2105319;28;20032;-83
2021/11/04 05:04:28;;;;;;;11.32;4.30;;;4.90;99.90;;;;;;2104917;28;20029;-84
2021/11/04 05:05:29;;;;;;;11.38;4.25;;;4.90;99.90;;;;;;2096083;28;20025;-84
2021/11/04 05:06:30;;;;;;;9.52;3.90;;;4.90;99.90;;;;;;2096126;28;20569;-82
2021/11/04 05:07:30;;;;;;;8.30;3.72;;;5.00;99.90;;;;;;2104807;28;20043;-83
2021/11/04 05:08:31;;;;;;;7.90;3.58;;;5.00;99.90;;;;;;2097210;28;20021;-84
2021/11/04 05:09:32;;;;;;;8.25;3.13;;;5.10;99.90;;;;;;2100382;28;20076;-83
2021/11/04 05:10:32;;;;;;;9.25;3.78;;;5.20;99.90;;;;;;2104573;28;20116;-83
2021/11/04 05:11:33;;;;;;;10.23;3.55;;;5.20;99.90;;;;;;2097626;28;20051;-82
2021/11/04 05:12:34;;;;;;;11.10;4.10;;;5.30;99.90;;;;;;2104019;28;20570;-83
2021/11/04 05:13:35;;;;;;;11.13;3.65;;;5.30;99.90;;;;;;2096685;28;20078;-83
2021/11/04 05:14:36;;;;;;;8.40;3.40;;;5.30;99.90;;;;;;2096566;28;20029;-83
2021/11/04 05:15:37;;;;;;;13.63;3.53;;;5.30;99.90;;;;;;2105777;28;20107;-85
2021/11/04 05:16:38;;;;;;;9.75;3.28;;;5.40;99.90;;;;;;2101130;28;20020;-83
2021/11/04 05:17:39;;;;;;;8.75;3.17;;;5.40;99.90;;;;;;2099088;28;20013;-83
2021/11/04 05:18:40;;;;;;;9.43;3.03;;;5.50;99.90;;;;;;2098710;28;20530;-84
2021/11/04 05:19:40;;;;;;;8.50;3.55;;;5.50;99.90;;;;;;2096573;28;20020;-83
2021/11/04 05:20:41;;;;;;;11.88;3.20;;;5.50;99.90;;;;;;2096723;28;20029;-85
2021/11/04 05:21:42;;;;;;;11.63;3.22;;;5.60;99.90;;;;;;2104658;28;20064;-82
2021/11/04 05:22:42;;;;;;;10.10;3.78;;;5.60;99.90;;;;;;2096286;28;20013;-83
2021/11/04 05:23:43;;;;;;;11.95;3.03;;;5.70;99.90;;;;;;2094818;28;20041;-82
2021/11/04 05:24:44;;;;;;;9.90;3.20;;;5.70;99.90;;;;;;2091276;28;20028;-84
2021/11/04 05:25:45;;;;;;;8.40;2.72;;;5.80;99.90;;;;;;2087584;28;20025;-83
2021/11/04 05:26:47;;;;;;;9.50;3.63;;;5.80;99.90;;;;;;2086966;28;20022;-83